Monarch, MT (59463)

3:52 AM MDT on September 30, 2016 (GMT -0600)
Strains Lane | | Change Station

Elev 4642 ft 47.08 °N, 110.83 °W | Updated 24 seconds ago

Clear
Clear
39.7 °F
Feels Like 40 °F
N
0.0
Wind Variable Wind from NE
Gusts 0.0 mph

Today
High -- | Low -- °F
--% Chance of Precip.
Yesterday
High -- | Low -- °F
Precip. -- in
Pressure 30.02 in
Visibility 10.0 miles
Clouds Clear
Windchill 40 °F
Dew Point 40 °F
Humidity 99%
Rainfall 0.00 in
Snow Depth Not available.
7:21 AM 7:03 PM
Waning Crescent, 0% visible
METAR KGFA 300858Z AUTO 22006KT 10SM CLR 09/09 A3003 RMK AO2 SLP164 T00920088 56003 TSNO $
Pressure 30.02 in
Visibility 10.0 miles
Clouds Clear
Windchill 40 °F
Dew Point 40 °F
Humidity 99%
Rainfall 0.00 in
Snow Depth Not available.
7:21 AM 7:03 PM
Waning Crescent, 0% visible
METAR KGFA 300858Z AUTO 22006KT 10SM CLR 09/09 A3003 RMK AO2 SLP164 T00920088 56003 TSNO $

10-Day Weather Forecast

Almanac

Astronomy

Sep. 30, 2016 Rise Set
Actual Time
Civil Twilight
Nautical Twilight
Astronomical Twilight
Moon
Length of Visible Light
Length of Day
Tomorrow will be .
, % of the Moon is Illuminated

Today's Extremes

State Highs State Lows

Community

WunderPhotos

Upload Photos

1,942,684 photos uploaded!

WunderBlog® & News

Nearby

Air Quality

  Air Quality AQ Index Pollutant
Not available.

Snow Depth

Station Depth Elevation

Earthquake Activity

City Distance Mag. Time & Date
Minimum magnitude displayed is 2.5.

Coastal Water Temperatures

Place Temperature

Stations

Nearby Weather Stations

Station Location Temp. Windchill Dew Point Humidity Wind Precip. Elev Updated Type
                   

Watches & Warnings

There are currently no watches in effect.